OLD weather

Dewitt Field,Old Town Municipal Airport
Old Town, Maine, United States

Public forecast

Using degrees Fahrenheit for public forecast. Weather courtesy of forecast.io.

Closest aviation weather report (METAR) to Dewitt Field,Old Town Municipal Airport

Closest report is Bangor International Airport, 10.9 nm (20.2 km) SW. Retrieved 2019/10/22 07:53 UTC (45 minutes ago):

KBGR 220753Z 00000KT 10SM FEW200 02/02 A3021 RMK AO2 SLP230 T00220017

Closest aviation forecast (TAF) to Dewitt Field,Old Town Municipal Airport

Closest forecast is Bangor International Airport, 10.9 nm (20.2 km) SW. Retrieved 2019/10/22 06:22 UTC (2 hours ago):

TAF KBGR 220520Z 2206/2306 VRB03KT P6SM SKC FM220900 02004KT P6SM BKN200 FM221800 10008G16KT P6SM BKN100 FM230400 09012G22KT P6SM BKN020 OVC040 WS020/14045KT